Time;durP1;ratioP1;P1;durP2;ratioP2;P2;SDS_P1;SDS_P2;PMS_P1;PMS_P2;Temp;Humidity;BMP_temperature;BMP_pressure;BME280_temperature;BME280_humidity;BME280_pressure;Samples;Min_cycle;Max_cycle;Signal;HPM_P1;HPM_P2
2022/06/20 00:00:43;;;;;;;0.40;0.40;;;;;;;18.46;51.15;100726.66;5143309;28;20112;-81
2022/06/20 00:03:26;;;;;;;0.20;0.20;;;;;;;18.46;51.27;100746.13;5164624;28;20040;-80
2022/06/20 00:05:57;;;;;;;;;;;;;;;18.47;50.76;100733.66;5162342;28;20041;-80
2022/06/20 00:08:28;;;;;;;0.95;0.77;;;;;;;18.44;51.47;100716.13;5183481;28;19999;-80
2022/06/20 00:10:58;;;;;;;0.30;0.30;;;;;;;18.40;50.85;100714.59;5181044;28;20046;-82
2022/06/20 00:13:33;;;;;;;0.50;0.50;;;;;;;18.42;51.35;100712.69;5174662;28;20112;-79
2022/06/20 00:16:04;;;;;;;0.30;0.30;;;;;;;18.40;51.85;100715.44;5192819;28;20038;-80
2022/06/20 00:18:35;;;;;;;0.30;0.30;;;;;;;18.43;51.07;100709.09;5182755;28;20552;-80
2022/06/20 00:21:06;;;;;;;0.55;0.55;;;;;;;18.42;51.20;100687.94;5163040;28;20049;-79
2022/06/20 00:23:36;;;;;;;1.65;1.10;;;;;;;18.32;52.28;100674.34;5182037;28;20060;-79
2022/06/20 00:26:11;;;;;;;1.60;0.82;;;;;;;18.37;51.26;100669.63;5176320;28;20046;-80
2022/06/20 00:28:43;;;;;;;12.32;0.65;;;;;;;18.32;51.64;100671.69;5182268;28;20030;-80
2022/06/20 00:31:14;;;;;;;0.30;0.30;;;;;;;18.36;51.28;100662.59;5151575;28;20064;-80
2022/06/20 00:33:45;;;;;;;0.82;0.82;;;;;;;18.38;52.26;100656.25;5178430;28;20029;-80
2022/06/20 00:36:16;;;;;;;0.28;0.28;;;;;;;18.34;51.18;100651.22;5182656;28;20061;-81
2022/06/20 00:38:54;;;;;;;0.55;0.55;;;;;;;18.35;51.34;100629.03;5184935;28;20096;-80
2022/06/20 00:41:29;;;;;;;0.32;0.32;;;;;;;18.32;51.25;100622.09;5188786;28;20141;-81
2022/06/20 00:44:01;;;;;;;0.30;0.30;;;;;;;18.29;51.45;100614.31;5166142;28;20049;-81
2022/06/20 00:46:42;;;;;;;0.20;0.20;;;;;;;18.24;51.63;100630.53;5158786;28;20065;-81
2022/06/20 00:49:20;;;;;;;0.25;0.25;;;;;;;18.29;50.98;100651.50;5157735;28;20045;-81
2022/06/20 00:52:18;;;;;;;0.73;0.50;;;;;;;18.31;50.90;100672.63;5202699;28;20224;-80
2022/06/20 00:54:49;;;;;;;0.30;0.30;;;;;;;18.28;50.87;100689.63;5187192;28;21876;-80
2022/06/20 00:57:31;;;;;;;0.40;0.40;;;;;;;18.30;50.79;100724.91;5183738;28;20579;-81
2022/06/20 01:00:09;;;;;;;0.20;0.20;;;;;;;18.33;51.15;100755.75;5178695;28;20061;-80
2022/06/20 01:02:45;;;;;;;0.47;0.47;;;;;;;18.34;51.06;100790.19;5183580;28;20129;-80
2022/06/20 01:05:22;;;;;;;0.28;0.28;;;;;;;18.37;51.13;100836.97;5173636;28;20037;-81
2022/06/20 01:08:02;;;;;;;0.20;0.20;;;;;;;18.39;51.64;100890.84;5203329;28;20048;-81
2022/06/20 01:10:42;;;;;;;1.20;0.50;;;;;;;18.40;52.91;100913.81;5186601;28;20063;-81
2022/06/20 01:13:19;;;;;;;0.20;0.20;;;;;;;18.19;57.10;100951.28;5200981;28;20034;-81
2022/06/20 01:15:55;;;;;;;0.40;0.40;;;;;;;18.30;57.99;100963.09;5180304;28;20048;-81
2022/06/20 01:18:30;;;;;;;1.17;1.08;;;;;;;18.29;55.86;100979.97;5181321;28;20018;-81
2022/06/20 01:21:04;;;;;;;1.27;1.00;;;;;;;18.38;54.89;100972.34;5187934;28;20041;-81
2022/06/20 01:24:08;;;;;;;8.60;1.15;;;;;;;18.39;53.85;100947.50;5196282;28;20117;-81
2022/06/20 01:27:08;;;;;;;2.22;1.55;;;;;;;18.40;54.05;100920.00;5186640;28;20037;-80
2022/06/20 01:29:40;;;;;;;0.88;0.88;;;;;;;18.36;53.65;100909.63;5172692;28;20049;-81
2022/06/20 01:32:11;;;;;;;0.68;0.50;;;;;;;18.40;53.89;100908.50;5201668;28;20088;-80
2022/06/20 01:34:41;;;;;;;0.40;0.40;;;;;;;18.39;53.30;100905.00;5176327;28;20591;-81
2022/06/20 01:37:25;;;;;;;0.40;0.40;;;;;;;18.41;54.03;100894.28;5165520;28;20120;-81
2022/06/20 01:40:01;;;;;;;0.52;0.52;;;;;;;18.37;53.83;100879.47;5186189;28;20073;-81
2022/06/20 01:42:33;;;;;;;0.30;0.30;;;;;;;18.35;53.34;100881.34;5195009;28;20029;-80
2022/06/20 01:48:21;;;;;;;13.90;0.77;;;;;;;18.29;53.33;100841.88;5193993;28;20037;-80
2022/06/20 01:50:52;;;;;;;0.52;0.52;;;;;;;18.29;53.15;100817.97;5177520;28;20046;-80
2022/06/20 01:53:28;;;;;;;0.30;0.30;;;;;;;18.21;53.60;100781.22;5146094;28;20036;-80
2022/06/20 01:56:01;;;;;;;1.38;1.27;;;;;;;18.22;53.47;100759.88;5185977;28;20042;-80
2022/06/20 01:58:41;;;;;;;1.00;0.95;;;;;;;18.19;53.35;100740.63;5175327;28;20488;-81
2022/06/20 02:01:14;;;;;;;0.43;0.43;;;;;;;18.20;53.86;100705.16;5158127;28;20038;-80
2022/06/20 02:03:47;;;;;;;1.25;1.17;;;;;;;18.12;55.88;100688.81;5172017;28;20370;-80
2022/06/20 02:06:18;;;;;;;0.30;0.30;;;;;;;18.10;54.42;100665.03;5162444;28;20084;-80
2022/06/20 02:08:53;;;;;;;0.40;0.38;;;;;;;18.07;56.10;100652.81;5194071;28;20021;-80
2022/06/20 02:11:32;;;;;;;0.70;0.70;;;;;;;18.06;55.27;100623.66;5201608;28;20038;-80
2022/06/20 02:14:13;;;;;;;0.20;0.20;;;;;;;18.02;55.83;100592.94;5174110;28;20036;-81
2022/06/20 02:16:49;;;;;;;0.98;0.80;;;;;;;17.91;55.20;100567.88;5197212;28;20052;-80
2022/06/20 02:19:31;;;;;;;0.60;0.60;;;;;;;17.88;55.92;100544.19;5183613;28;20126;-80
2022/06/20 02:22:07;;;;;;;0.73;0.73;;;;;;;17.82;56.28;100522.47;5197373;28;20033;-80
2022/06/20 02:24:43;;;;;;;0.93;0.93;;;;;;;17.80;57.91;100482.78;5185163;28;20418;-80
2022/06/20 02:27:26;;;;;;;0.77;0.77;;;;;;;17.74;58.82;100462.75;5182132;28;20080;-80
2022/06/20 02:29:58;;;;;;;0.65;0.65;;;;;;;17.66;57.67;100429.66;5185437;28;20120;-80
2022/06/20 02:32:33;;;;;;;0.80;0.70;;;;;;;17.52;59.10;100418.13;5167976;28;20064;-80
2022/06/20 02:35:07;;;;;;;0.93;0.90;;;;;;;17.50;58.48;100433.28;5186139;28;20033;-80
2022/06/20 02:37:38;;;;;;;0.60;0.60;;;;;;;17.46;58.69;100466.25;5184787;28;20605;-80
2022/06/20 02:40:15;;;;;;;1.80;0.73;;;;;;;17.41;58.54;100489.50;5188225;28;20043;-80
2022/06/20 02:42:54;;;;;;;0.60;0.60;;;;;;;17.46;57.48;100490.13;5190347;28;20326;-80
2022/06/20 02:45:30;;;;;;;0.75;0.75;;;;;;;17.41;57.21;100489.50;5186304;28;20041;-81
2022/06/20 02:48:05;;;;;;;1.60;0.55;;;;;;;17.36;59.81;100508.34;5197287;28;20382;-80
2022/06/20 02:50:46;;;;;;;0.40;0.40;;;;;;;17.40;59.44;100516.97;5178102;28;20052;-80
2022/06/20 02:53:40;;;;;;;3.05;1.08;;;;;;;17.34;57.46;100501.44;5191833;28;20033;-80
2022/06/20 02:56:16;;;;;;;0.22;0.22;;;;;;;17.26;59.63;100518.66;5167679;28;20050;-81
2022/06/20 02:58:59;;;;;;;1.35;1.25;;;;;;;17.30;58.36;100535.22;5173550;28;20033;-81
2022/06/20 03:01:40;;;;;;;;;;;;;;;17.25;58.45;100548.75;5168674;28;20104;-80
2022/06/20 03:04:11;;;;;;;0.40;0.40;;;;;;;17.20;59.00;100537.56;5162974;28;19974;-80
2022/06/20 03:06:49;;;;;;;1.23;0.77;;;;;;;17.18;59.58;100539.44;5164117;28;20048;-80
2022/06/20 03:09:28;;;;;;;2.20;1.73;;;;;;;17.06;60.22;100541.00;5188058;28;20652;-81
2022/06/20 03:12:01;;;;;;;0.90;0.75;;;;;;;17.15;59.11;100543.13;5196669;28;20110;-80
2022/06/20 03:14:42;;;;;;;0.52;0.52;;;;;;;17.09;58.57;100540.84;5166627;28;20049;-81
2022/06/20 03:17:19;;;;;;;0.60;0.60;;;;;;;17.09;58.74;100535.56;5190534;28;20113;-80
2022/06/20 03:20:02;;;;;;;1.55;1.45;;;;;;;17.06;59.27;100524.28;5175598;28;20129;-82
2022/06/20 03:23:22;;;;;;;0.57;0.57;;;;;;;16.98;59.77;100527.34;5157388;28;20418;-82
2022/06/20 03:25:55;;;;;;;0.35;0.35;;;;;;;16.95;58.95;100527.50;5166287;28;20077;-82
2022/06/20 03:28:30;;;;;;;;;;;;;;;16.89;58.02;100528.69;5190751;28;20034;-78
2022/06/20 03:31:01;;;;;;;3.10;0.90;;;;;;;16.91;57.93;100529.44;5199675;28;20047;-79
2022/06/20 03:33:33;;;;;;;0.57;0.57;;;;;;;16.89;59.59;100544.59;5180242;28;20079;-82
2022/06/20 03:36:09;;;;;;;0.30;0.30;;;;;;;16.88;58.17;100550.84;5153876;28;20468;-82
2022/06/20 03:38:42;;;;;;;1.55;0.90;;;;;;;16.81;59.58;100552.97;5166952;28;20454;-79
2022/06/20 03:41:15;;;;;;;0.47;0.47;;;;;;;16.82;58.14;100564.41;5182322;28;20038;-80
2022/06/20 03:44:20;;;;;;;0.35;0.30;;;;;;;16.74;59.74;100578.09;5186207;28;20052;-80
2022/06/20 03:47:03;;;;;;;1.02;1.02;;;;;;;16.75;57.90;100595.72;5172477;28;20690;-80
2022/06/20 03:49:38;;;;;;;;;;;;;;;16.75;57.76;100634.56;5179339;28;20040;-80
2022/06/20 03:52:21;;;;;;;0.32;0.32;;;;;;;16.74;57.01;100683.19;5179426;28;19939;-80
2022/06/20 03:55:02;;;;;;;0.40;0.40;;;;;;;16.74;56.94;100713.22;5170332;28;20187;-80
2022/06/20 03:58:02;;;;;;;2.15;2.00;;;;;;;16.77;56.94;100741.34;5202103;28;20111;-80
2022/06/20 04:00:59;;;;;;;1.33;0.90;;;;;;;16.80;57.73;100751.78;5159983;28;20045;-80
2022/06/20 04:03:47;;;;;;;0.43;0.35;;;;;;;16.77;57.25;100766.06;5164163;28;20115;-80
2022/06/20 04:06:27;;;;;;;0.20;0.20;;;;;;;16.78;57.12;100790.75;5173149;28;20042;-80
2022/06/20 04:12:42;;;;;;;0.20;0.20;;;;;;;16.82;57.92;100813.47;5084910;29;20067;-80
2022/06/20 04:15:18;;;;;;;3.63;1.42;;;;;;;16.80;57.14;100812.72;5132692;28;20043;-79
2022/06/20 04:18:29;;;;;;;0.40;0.40;;;;;;;16.80;57.27;100812.72;5164330;28;20451;-81
2022/06/20 04:21:32;;;;;;;1.02;0.95;;;;;;;16.81;57.26;100817.09;5158578;28;20283;-79
2022/06/20 04:24:17;;;;;;;0.20;0.20;;;;;;;16.80;56.87;100821.53;5173172;28;20038;-78
2022/06/20 04:27:18;;;;;;;0.52;0.52;;;;;;;16.82;58.85;100838.19;5176285;28;20121;-82
2022/06/20 04:29:57;;;;;;;0.30;0.30;;;;;;;16.86;57.67;100835.41;5184434;28;20177;-80
2022/06/20 04:32:48;;;;;;;0.70;0.70;;;;;;;16.81;57.42;100844.44;5170718;28;20037;-80
2022/06/20 04:35:25;;;;;;;3.00;0.68;;;;;;;16.83;57.18;100839.03;5180937;28;20071;-79
2022/06/20 04:38:01;;;;;;;0.35;0.35;;;;;;;16.83;56.95;100841.69;5165689;28;20047;-83
2022/06/20 04:40:43;;;;;;;0.30;0.30;;;;;;;16.83;57.02;100837.28;5181595;28;20042;-82
2022/06/20 04:43:26;;;;;;;3.20;1.85;;;;;;;16.86;57.53;100835.41;5172797;28;20029;-80
2022/06/20 04:46:09;;;;;;;0.32;0.32;;;;;;;16.83;57.10;100824.03;5210046;28;20037;-82
2022/06/20 04:48:43;;;;;;;0.40;0.40;;;;;;;16.81;57.09;100817.94;5206386;28;20037;-82
2022/06/20 04:51:24;;;;;;;0.68;0.68;;;;;;;16.85;57.57;100810.69;5183332;28;20111;-83
2022/06/20 04:54:06;;;;;;;;;;;;;;;;;;;;;
2022/06/20 04:56:44;;;;;;;2.72;1.25;;;;;;;16.80;57.32;100794.19;5186465;28;20152;-82
2022/06/20 04:59:26;;;;;;;0.43;0.43;;;;;;;16.78;57.59;100801.34;5196856;28;20091;-83
2022/06/20 05:02:02;;;;;;;0.20;0.20;;;;;;;16.79;57.31;100792.47;5159859;28;20072;-82
2022/06/20 05:04:43;;;;;;;0.38;0.38;;;;;;;16.79;57.58;100787.16;5189218;28;20087;-81
2022/06/20 05:07:20;;;;;;;0.30;0.30;;;;;;;16.77;57.04;100783.72;5203758;28;20042;-83
2022/06/20 05:10:02;;;;;;;1.15;1.13;;;;;;;16.77;57.19;100789.03;5193308;28;20563;-82
2022/06/20 05:12:54;;;;;;;0.63;0.63;;;;;;;16.77;58.29;100787.25;5190257;28;20501;-82
2022/06/20 05:15:55;;;;;;;0.40;0.40;;;;;;;16.74;57.74;100781.22;5187198;28;20253;-83
2022/06/20 05:18:34;;;;;;;0.25;0.25;;;;;;;16.74;57.77;100774.16;5194443;28;20583;-82
2022/06/20 05:21:19;;;;;;;0.40;0.40;;;;;;;16.76;58.18;100780.22;5157719;28;20068;-82
2022/06/20 05:23:53;;;;;;;0.40;0.40;;;;;;;16.72;57.76;100781.31;5206684;28;20141;-83
2022/06/20 05:26:41;;;;;;;0.30;0.30;;;;;;;16.70;57.99;100772.59;5185239;28;20572;-83
2022/06/20 05:29:22;;;;;;;0.40;0.40;;;;;;;16.68;57.99;100770.03;5188931;28;20033;-83
2022/06/20 05:31:54;;;;;;;3.67;1.17;;;;;;;16.61;58.99;100773.09;5177956;28;20046;-83
2022/06/20 05:34:46;;;;;;;0.25;0.25;;;;;;;16.60;58.63;100769.56;5183806;28;20033;-83
2022/06/20 05:37:28;;;;;;;0.30;0.30;;;;;;;16.60;58.52;100772.22;5191538;28;20044;-83
2022/06/20 05:40:31;;;;;;;0.38;0.38;;;;;;;16.57;59.63;100785.59;5206979;28;20173;-82
2022/06/20 05:43:02;;;;;;;0.30;0.30;;;;;;;16.57;59.64;100780.31;5158068;28;20050;-83
2022/06/20 05:45:33;;;;;;;0.20;0.20;;;;;;;16.59;58.66;100778.44;5176056;28;20140;-81
2022/06/20 05:48:11;;;;;;;;;;;;;;;16.57;58.44;100787.41;5166795;28;20048;-82
2022/06/20 05:51:04;;;;;;;0.40;0.40;;;;;;;16.60;59.23;100792.56;5176430;28;19924;-83
2022/06/20 05:53:50;;;;;;;0.43;0.43;;;;;;;16.53;58.17;100797.31;5180172;28;20037;-82
2022/06/20 05:56:56;;;;;;;0.30;0.30;;;;;;;16.55;57.99;100794.56;5207970;28;20043;-81
2022/06/20 05:59:26;;;;;;;0.20;0.20;;;;;;;16.52;59.40;100788.50;5187398;28;20025;-83
2022/06/20 06:02:16;;;;;;;0.30;0.30;;;;;;;16.49;58.86;100777.19;5189275;28;20071;-83
2022/06/20 06:05:08;;;;;;;1.45;1.17;;;;;;;16.51;58.99;100772.69;5198317;28;20037;-83
2022/06/20 06:07:46;;;;;;;3.10;0.90;;;;;;;16.47;59.38;100776.44;5172380;28;20122;-82
2022/06/20 06:10:28;;;;;;;0.40;0.40;;;;;;;16.47;59.27;100781.72;5170534;28;20053;-82
2022/06/20 06:13:07;;;;;;;0.38;0.38;;;;;;;16.32;61.68;100781.56;5156823;28;20033;-83
2022/06/20 06:16:46;;;;;;;0.40;0.40;;;;;;;16.40;60.05;100783.81;5182903;28;20042;-83
2022/06/20 06:18:48;;;;;;;0.30;0.30;;;;;;;16.36;59.38;100800.81;5171578;28;20045;-81
2022/06/20 06:21:19;;;;;;;0.40;0.40;;;;;;;16.42;60.46;100795.22;5180197;28;20052;-82
2022/06/20 06:23:50;;;;;;;0.40;0.40;;;;;;;16.41;60.20;100792.63;5185599;28;20057;-82
2022/06/20 06:26:21;;;;;;;0.25;0.25;;;;;;;16.43;59.35;100801.34;5143605;28;20077;-83
2022/06/20 06:28:53;;;;;;;0.20;0.20;;;;;;;16.36;59.92;100792.88;5175057;28;20038;-83
2022/06/20 06:31:40;;;;;;;0.20;0.20;;;;;;;16.36;59.22;100777.00;5165636;28;20041;-83
2022/06/20 06:34:23;;;;;;;0.35;0.35;;;;;;;16.43;60.21;100796.06;5187903;28;20477;-83
2022/06/20 06:36:56;;;;;;;;;;;;;;;16.44;61.30;100818.94;5199022;28;20098;-81
2022/06/20 06:39:58;;;;;;;0.20;0.20;;;;;;;16.37;59.90;100815.75;5187097;28;19913;-82
2022/06/20 06:42:29;;;;;;;0.30;0.30;;;;;;;16.43;59.75;100825.19;5203346;28;20246;-83
2022/06/20 06:45:00;;;;;;;0.28;0.28;;;;;;;16.42;60.86;100826.09;5177523;28;20049;-83
2022/06/20 06:47:42;;;;;;;0.73;0.60;;;;;;;16.44;59.13;100840.13;5190623;28;20040;-84
2022/06/20 06:50:26;;;;;;;0.47;0.47;;;;;;;16.40;61.19;100838.59;5213215;28;20045;-81
2022/06/20 06:53:12;;;;;;;0.40;0.40;;;;;;;16.42;59.61;100837.56;5191402;28;20033;-83
2022/06/20 06:55:49;;;;;;;1.52;1.45;;;;;;;16.43;59.57;100849.88;5178611;28;20041;-83
2022/06/20 06:58:38;;;;;;;1.20;1.20;;;;;;;16.45;58.89;100841.84;5187951;28;20083;-83
2022/06/20 07:01:21;;;;;;;0.22;0.22;;;;;;;16.48;58.87;100847.00;5191813;28;20045;-83
2022/06/20 07:04:02;;;;;;;0.20;0.20;;;;;;;16.51;58.73;100862.72;5193047;28;20037;-83
2022/06/20 07:06:42;;;;;;;0.68;0.68;;;;;;;16.52;58.32;100869.75;5182186;28;20507;-82
2022/06/20 07:09:26;;;;;;;0.50;0.50;;;;;;;16.53;58.33;100882.06;5184561;28;20382;-82
2022/06/20 07:12:20;;;;;;;0.93;0.85;;;;;;;16.56;59.38;100881.03;5167616;28;20044;-83
2022/06/20 07:14:57;;;;;;;;;;;;;;;16.55;58.57;100893.44;5184528;28;20263;-83
2022/06/20 07:17:50;;;;;;;0.20;0.20;;;;;;;16.52;58.84;100890.94;5179640;28;19921;-82
2022/06/20 07:20:26;;;;;;;0.65;0.65;;;;;;;16.52;58.51;100891.81;5168240;28;20619;-83
2022/06/20 07:23:00;;;;;;;0.95;0.95;;;;;;;16.55;58.66;100889.91;5192524;28;20230;-83
2022/06/20 07:25:37;;;;;;;0.20;0.20;;;;;;;16.54;58.57;100886.44;5185591;28;20087;-83
2022/06/20 07:28:40;;;;;;;0.73;0.73;;;;;;;16.54;58.35;100883.78;5173356;28;20045;-82
2022/06/20 07:31:26;;;;;;;3.03;0.90;;;;;;;16.57;59.93;100890.72;5191475;28;20120;-83
2022/06/20 07:34:38;;;;;;;1.00;0.88;;;;;;;16.58;58.45;100882.69;5191657;28;20113;-82
2022/06/20 07:37:13;;;;;;;0.30;0.30;;;;;;;16.65;58.07;100875.28;5190415;28;20086;-83
2022/06/20 07:39:43;;;;;;;0.32;0.32;;;;;;;16.62;58.18;100878.97;5176873;28;20457;-82
2022/06/20 07:42:35;;;;;;;0.50;0.50;;;;;;;16.73;58.51;100899.59;5188117;28;20042;-82
2022/06/20 07:45:18;;;;;;;0.73;0.73;;;;;;;16.73;57.88;100889.00;5209865;28;20087;-82
2022/06/20 07:47:57;;;;;;;7.25;2.30;;;;;;;16.76;58.41;100882.69;5168556;28;20087;-83
2022/06/20 07:50:42;;;;;;;0.40;0.40;;;;;;;16.78;58.27;100891.44;5196758;28;20073;-83
2022/06/20 07:53:24;;;;;;;0.20;0.20;;;;;;;16.82;57.57;100892.97;5182861;28;20116;-83
2022/06/20 07:56:00;;;;;;;0.77;0.77;;;;;;;16.83;58.48;100895.56;5183806;28;20146;-82
2022/06/20 07:58:35;;;;;;;0.47;0.47;;;;;;;16.87;58.31;100900.69;5185280;28;20053;-82
2022/06/20 08:01:17;;;;;;;1.65;0.95;;;;;;;16.94;58.53;100903.00;5197333;28;20104;-83
2022/06/20 08:03:53;;;;;;;2.00;1.25;;;;;;;16.95;58.78;100917.97;5197481;28;20070;-83
2022/06/20 08:06:36;;;;;;;0.25;0.25;;;;;;;16.91;59.44;100919.00;5204674;28;20079;-83
2022/06/20 08:09:24;;;;;;;0.85;0.85;;;;;;;17.08;59.16;100935.88;5203295;28;20040;-83
2022/06/20 08:12:05;;;;;;;0.90;0.43;;;;;;;17.06;58.89;100937.78;5192322;28;20248;-83
2022/06/20 08:14:55;;;;;;;0.60;0.57;;;;;;;16.98;59.78;100946.94;5170971;28;20041;-83
2022/06/20 08:17:29;;;;;;;0.30;0.30;;;;;;;17.09;58.90;100953.50;5207158;28;20034;-83
2022/06/20 08:20:01;;;;;;;6.07;1.50;;;;;;;17.08;58.89;100951.78;5188325;28;20048;-83
2022/06/20 08:22:39;;;;;;;0.20;0.20;;;;;;;17.17;59.57;100961.09;5165739;28;20032;-83
2022/06/20 08:25:20;;;;;;;0.20;0.20;;;;;;;17.17;58.90;100953.97;5202628;28;20042;-83
2022/06/20 08:27:50;;;;;;;1.13;1.00;;;;;;;17.19;59.54;100972.47;5161867;28;20102;-83
2022/06/20 08:30:32;;;;;;;0.50;0.50;;;;;;;17.20;58.67;100967.09;5142788;28;20041;-82
2022/06/20 08:33:21;;;;;;;0.45;0.45;;;;;;;17.26;59.34;100977.38;5178180;28;20030;-83
2022/06/20 08:36:08;;;;;;;6.50;1.50;;;;;;;17.26;59.10;100963.28;5184385;28;20105;-83
2022/06/20 08:38:38;;;;;;;1.95;1.27;;;;;;;17.31;58.97;100958.56;5170401;28;20057;-83
2022/06/20 08:41:23;;;;;;;0.40;0.40;;;;;;;17.46;58.43;100971.03;5174038;28;20042;-83
2022/06/20 08:44:23;;;;;;;0.20;0.20;;;;;;;17.52;58.50;100969.88;5186476;28;20025;-83
2022/06/20 08:47:13;;;;;;;0.30;0.30;;;;;;;17.54;59.16;100970.66;5192177;28;20104;-82
2022/06/20 08:50:05;;;;;;;4.15;0.55;;;;;;;17.65;58.42;100966.53;5185750;28;20045;-83
2022/06/20 08:52:59;;;;;;;0.20;0.20;;;;;;;17.70;58.62;100965.38;5161769;28;20413;-83
2022/06/20 08:56:09;;;;;;;0.45;0.45;;;;;;;17.73;57.64;100974.97;5190573;28;20367;-83
2022/06/20 08:58:51;;;;;;;0.30;0.30;;;;;;;17.76;57.24;100973.03;5165004;28;20045;-82
2022/06/20 09:01:32;;;;;;;0.80;0.68;;;;;;;17.75;56.76;100967.78;5178155;28;20045;-82
2022/06/20 09:04:10;;;;;;;0.40;0.40;;;;;;;17.77;56.83;100972.06;5194295;28;20042;-82
2022/06/20 09:07:08;;;;;;;0.52;0.52;;;;;;;17.73;56.77;100975.84;5191802;28;20045;-82
2022/06/20 09:09:56;;;;;;;0.20;0.20;;;;;;;17.77;56.73;100979.19;5215429;28;20033;-83
2022/06/20 09:12:45;;;;;;;0.30;0.30;;;;;;;17.77;56.90;100979.19;5191740;28;20048;-83
2022/06/20 09:15:48;;;;;;;0.65;0.65;;;;;;;17.84;56.91;100991.19;5190498;28;20045;-82
2022/06/20 09:18:43;;;;;;;0.23;0.23;;;;;;;17.88;56.79;100992.75;5187171;28;20118;-83
2022/06/20 09:21:37;;;;;;;0.60;0.60;;;;;;;17.87;56.89;100980.41;5185976;28;20857;-82
2022/06/20 09:24:46;;;;;;;0.30;0.30;;;;;;;17.93;56.31;100988.03;5189290;28;20437;-81
2022/06/20 09:27:30;;;;;;;0.50;0.50;;;;;;;17.94;55.96;100995.06;5160517;28;20045;-82
2022/06/20 09:30:18;;;;;;;0.45;0.45;;;;;;;18.03;55.84;100999.03;5157124;28;20053;-83
2022/06/20 09:33:21;;;;;;;0.20;0.20;;;;;;;18.10;55.82;100999.56;5196313;28;20021;-82
2022/06/20 09:36:21;;;;;;;0.75;0.63;;;;;;;18.05;55.14;100996.31;5178617;28;20091;-82
2022/06/20 09:39:00;;;;;;;0.30;0.30;;;;;;;18.07;53.18;101005.03;5185907;28;20037;-82
2022/06/20 09:41:58;;;;;;;0.20;0.20;;;;;;;18.19;54.17;101009.69;5195266;28;20559;-82
2022/06/20 09:44:47;;;;;;;0.40;0.35;;;;;;;18.20;54.06;101014.06;5172746;28;20425;-82
2022/06/20 09:47:46;;;;;;;0.50;0.50;;;;;;;18.21;54.17;101012.25;5165538;28;20794;-83
2022/06/20 09:50:46;;;;;;;0.85;0.75;;;;;;;18.18;54.38;101002.66;5186484;28;20354;-81
2022/06/20 09:53:32;;;;;;;0.20;0.20;;;;;;;18.12;53.21;101002.13;5205031;28;20163;-82
2022/06/20 09:56:22;;;;;;;0.55;0.50;;;;;;;18.19;53.04;100999.06;5162956;28;20046;-82
2022/06/20 09:59:12;;;;;;;0.47;0.47;;;;;;;18.22;52.56;101004.19;5164717;28;20028;-82
2022/06/20 10:01:52;;;;;;;1.02;0.40;;;;;;;18.25;52.46;101008.50;5189597;28;20484;-83
2022/06/20 10:05:15;;;;;;;0.30;0.30;;;;;;;18.17;52.85;101006.25;5166333;28;20033;-82
2022/06/20 10:08:06;;;;;;;0.22;0.22;;;;;;;18.21;52.69;101017.56;5177266;28;20025;-82
2022/06/20 10:10:45;;;;;;;0.10;0.10;;;;;;;18.27;52.74;101013.72;5198432;28;20075;-83
2022/06/20 10:13:37;;;;;;;0.52;0.52;;;;;;;18.38;52.25;101016.66;5185054;28;20030;-83
2022/06/20 10:16:29;;;;;;;0.32;0.32;;;;;;;18.40;51.79;101028.03;5196139;28;20309;-82
2022/06/20 10:19:34;;;;;;;1.00;0.82;;;;;;;18.47;50.42;101024.09;5183164;28;20115;-82
2022/06/20 10:22:46;;;;;;;0.20;0.20;;;;;;;18.52;51.29;101035.34;5195692;28;20086;-82
2022/06/20 10:25:59;;;;;;;0.52;0.52;;;;;;;18.53;52.18;101034.41;5118281;28;20101;-81
2022/06/20 10:28:50;;;;;;;0.20;0.20;;;;;;;18.67;51.98;101035.41;5182942;28;20041;-82
2022/06/20 10:31:39;;;;;;;0.95;0.65;;;;;;;18.70;51.85;101035.25;5168558;28;20131;-82
2022/06/20 10:34:32;;;;;;;0.25;0.25;;;;;;;18.80;51.55;101031.13;5181336;28;20041;-82
2022/06/20 10:37:37;;;;;;;0.30;0.30;;;;;;;18.84;50.94;101039.81;5189317;28;20132;-82
2022/06/20 10:40:21;;;;;;;0.30;0.30;;;;;;;18.79;50.60;101037.41;5183953;28;20053;-82
2022/06/20 10:43:04;;;;;;;0.30;0.30;;;;;;;18.93;50.02;101041.09;5202242;28;20508;-82
2022/06/20 10:45:46;;;;;;;0.28;0.28;;;;;;;18.93;50.41;101041.09;5185449;28;20049;-82
2022/06/20 10:48:26;;;;;;;0.52;0.40;;;;;;;19.03;49.57;101036.97;5187619;28;20062;-82
2022/06/20 10:51:38;;;;;;;0.30;0.30;;;;;;;19.03;49.96;101036.97;5186065;28;20129;-83
2022/06/20 10:54:40;;;;;;;0.20;0.20;;;;;;;19.08;50.16;101029.56;5184472;28;20030;-83
2022/06/20 10:57:17;;;;;;;0.20;0.20;;;;;;;19.13;49.70;101032.81;5169101;28;20502;-82
2022/06/20 11:00:11;;;;;;;0.65;0.65;;;;;;;19.10;49.20;101032.13;5169862;28;20056;-82
2022/06/20 11:03:15;;;;;;;0.20;0.20;;;;;;;19.29;47.53;101029.28;5186041;28;20034;-82
2022/06/20 11:06:01;;;;;;;0.20;0.20;;;;;;;19.27;47.30;101033.81;5148229;28;20042;-82
2022/06/20 11:08:55;;;;;;;0.52;0.40;;;;;;;19.22;46.63;101035.88;5148165;28;20047;-82
2022/06/20 11:11:31;;;;;;;0.22;0.22;;;;;;;19.14;48.68;101031.88;5188057;28;20069;-82
2022/06/20 11:14:39;;;;;;;0.85;0.85;;;;;;;19.30;48.19;101044.25;5138205;28;20113;-82
2022/06/20 11:17:21;;;;;;;2.08;1.23;;;;;;;19.28;48.09;101041.69;5179639;28;20038;-82
2022/06/20 11:19:55;;;;;;;0.30;0.30;;;;;;;19.45;47.39;101039.84;5185754;28;20069;-82
2022/06/20 11:22:41;;;;;;;0.43;0.43;;;;;;;19.31;47.77;101040.66;5196490;28;20079;-82
2022/06/20 11:25:24;;;;;;;0.22;0.22;;;;;;;19.41;47.99;101041.84;5199878;28;20056;-82
2022/06/20 11:28:25;;;;;;;0.93;0.90;;;;;;;19.50;48.54;101037.78;5192526;28;20037;-81
2022/06/20 11:31:05;;;;;;;0.25;0.25;;;;;;;19.52;47.89;101048.34;5168620;28;20038;-82
2022/06/20 11:37:03;;;;;;;0.40;0.40;;;;;;;19.69;47.44;101039.31;5173939;28;20056;-82
2022/06/20 11:40:08;;;;;;;0.60;0.45;;;;;;;19.74;47.32;101048.75;5205314;28;20043;-84
2022/06/20 11:43:03;;;;;;;0.20;0.20;;;;;;;19.82;47.24;101040.31;5205654;23;20044;-86
2022/06/20 11:45:45;;;;;;;0.73;0.60;;;;;;;19.85;47.41;101039.28;5148824;28;20045;-86
2022/06/20 11:48:19;;;;;;;0.20;0.20;;;;;;;19.85;47.41;101040.13;5179621;28;20420;-84
2022/06/20 11:51:02;;;;;;;0.20;0.20;;;;;;;19.92;46.60;101029.97;5179789;28;20280;-85
2022/06/20 11:54:03;;;;;;;0.22;0.22;;;;;;;20.02;45.16;101038.25;5199678;28;20104;-85
2022/06/20 11:56:57;;;;;;;0.55;0.55;;;;;;;20.09;46.45;101032.44;5183885;28;20033;-86
2022/06/20 11:59:54;;;;;;;0.35;0.35;;;;;;;20.20;44.75;101028.25;5193736;28;20382;-86
2022/06/20 12:03:00;;;;;;;0.30;0.30;;;;;;;20.20;46.80;101033.59;5161979;28;20554;-85
2022/06/20 12:05:42;;;;;;;2.97;0.73;;;;;;;20.23;46.69;101028.94;5199731;28;20048;-86
2022/06/20 12:08:35;;;;;;;0.75;0.45;;;;;;;20.37;45.42;101030.69;5190872;28;20461;-85
2022/06/20 12:11:20;;;;;;;0.68;0.68;;;;;;;20.45;46.12;101022.22;5203354;28;20130;-85
2022/06/20 12:14:08;;;;;;;0.32;0.32;;;;;;;20.51;45.95;101018.31;5157554;28;20041;-86
2022/06/20 12:16:59;;;;;;;0.20;0.20;;;;;;;20.60;45.28;101020.38;5168230;28;20053;-86
2022/06/20 12:25:42;;;;;;;0.50;0.50;;;;;;;20.94;44.70;101007.53;5183288;28;20045;-84
2022/06/20 12:28:21;;;;;;;0.30;0.30;;;;;;;21.13;45.25;101008.97;5154328;28;20483;-84
2022/06/20 12:30:57;;;;;;;0.47;0.47;;;;;;;21.26;43.67;101008.97;5165546;28;20136;-84
2022/06/20 12:33:32;;;;;;;0.38;0.38;;;;;;;21.41;42.89;101004.44;5171939;28;20037;-83
2022/06/20 12:36:44;;;;;;;0.38;0.38;;;;;;;21.55;42.26;101001.66;5188757;28;20092;-85
2022/06/20 12:39:27;;;;;;;0.30;0.30;;;;;;;21.51;43.20;101010.84;5170730;28;20052;-83
2022/06/20 12:42:05;;;;;;;;;;;;;;;21.43;41.60;101010.53;5182489;28;20053;-83
2022/06/20 12:44:36;;;;;;;0.20;0.20;;;;;;;21.52;41.33;101021.41;5148206;28;19916;-84
2022/06/20 12:47:28;;;;;;;0.38;0.38;;;;;;;21.63;41.76;101007.34;5147637;28;20727;-84
2022/06/20 12:50:18;;;;;;;0.20;0.20;;;;;;;21.70;42.25;101005.97;5151376;28;20441;-84
2022/06/20 12:53:23;;;;;;;0.30;0.30;;;;;;;21.78;40.64;101017.91;5200586;28;20033;-83
2022/06/20 12:56:14;;;;;;;0.20;0.20;;;;;;;21.73;41.47;101006.72;5198267;28;20212;-85
2022/06/20 12:59:16;;;;;;;3.58;1.02;;;;;;;21.79;41.69;101009.81;5199206;28;20025;-86
2022/06/20 13:01:55;;;;;;;0.82;0.82;;;;;;;21.96;41.43;101013.97;5182620;28;20073;-86